sensor_id;sensor_type;location;lat;lon;timestamp;pressure;altitude;pressure_sealevel;temperature;humidity
60646;BME280;46462;32.608;-117.032;2023-04-10T00:00:34;99541.74;;;26.10;36.07
60646;BME280;46462;32.608;-117.032;2023-04-10T00:03:04;99540.38;;;26.13;36.04
60646;BME280;46462;32.608;-117.032;2023-04-10T00:05:35;99543.23;;;26.16;36.01
60646;BME280;46462;32.608;-117.032;2023-04-10T00:08:06;99544.51;;;26.17;36.00
60646;BME280;46462;32.608;-117.032;2023-04-10T00:10:37;99543.12;;;26.17;35.98
60646;BME280;46462;32.608;-117.032;2023-04-10T00:13:08;99543.91;;;26.22;35.92
60646;BME280;46462;32.608;-117.032;2023-04-10T00:15:38;99544.92;;;26.25;35.90
60646;BME280;46462;32.608;-117.032;2023-04-10T00:18:09;99545.14;;;26.30;35.82
60646;BME280;46462;32.608;-117.032;2023-04-10T00:20:40;99544.05;;;26.30;35.83
60646;BME280;46462;32.608;-117.032;2023-04-10T00:23:10;99544.09;;;26.28;35.82
60646;BME280;46462;32.608;-117.032;2023-04-10T00:25:41;99543.59;;;26.31;35.81
60646;BME280;46462;32.608;-117.032;2023-04-10T00:28:12;99542.01;;;26.31;35.84
60646;BME280;46462;32.608;-117.032;2023-04-10T00:30:42;99546.29;;;26.33;35.87
60646;BME280;46462;32.608;-117.032;2023-04-10T00:33:13;99547.98;;;26.35;35.82
60646;BME280;46462;32.608;-117.032;2023-04-10T00:35:44;99551.51;;;26.34;35.87
60646;BME280;46462;32.608;-117.032;2023-04-10T00:38:15;99549.79;;;26.31;35.98
60646;BME280;46462;32.608;-117.032;2023-04-10T00:40:45;99549.35;;;26.35;35.90
60646;BME280;46462;32.608;-117.032;2023-04-10T00:43:17;99550.97;;;26.33;35.94
60646;BME280;46462;32.608;-117.032;2023-04-10T00:45:47;99553.31;;;26.32;36.00
60646;BME280;46462;32.608;-117.032;2023-04-10T00:48:17;99552.18;;;26.38;35.87
60646;BME280;46462;32.608;-117.032;2023-04-10T00:50:48;99551.05;;;26.33;35.96
60646;BME280;46462;32.608;-117.032;2023-04-10T00:53:19;99555.46;;;26.33;36.07
60646;BME280;46462;32.608;-117.032;2023-04-10T00:55:50;99556.24;;;26.38;35.96
60646;BME280;46462;32.608;-117.032;2023-04-10T00:58:20;99561.70;;;26.39;35.94
60646;BME280;46462;32.608;-117.032;2023-04-10T01:00:51;99559.18;;;26.43;35.94
60646;BME280;46462;32.608;-117.032;2023-04-10T01:03:22;99559.76;;;26.39;36.04
60646;BME280;46462;32.608;-117.032;2023-04-10T01:05:59;99563.10;;;26.46;35.89
60646;BME280;46462;32.608;-117.032;2023-04-10T01:08:29;99565.47;;;26.45;35.87
60646;BME280;46462;32.608;-117.032;2023-04-10T01:11:00;99560.94;;;26.51;35.84
60646;BME280;46462;32.608;-117.032;2023-04-10T01:13:29;99561.26;;;26.55;35.79
60646;BME280;46462;32.608;-117.032;2023-04-10T01:15:59;99561.10;;;26.57;35.78
60646;BME280;46462;32.608;-117.032;2023-04-10T01:18:33;99562.96;;;26.50;36.02
60646;BME280;46462;32.608;-117.032;2023-04-10T01:20:58;99566.59;;;26.52;36.00
60646;BME280;46462;32.608;-117.032;2023-04-10T01:26:01;99567.57;;;26.51;36.28
60646;BME280;46462;32.608;-117.032;2023-04-10T01:31:01;99570.44;;;26.49;36.13
60646;BME280;46462;32.608;-117.032;2023-04-10T01:33:38;99569.13;;;26.47;36.22
60646;BME280;46462;32.608;-117.032;2023-04-10T01:36:05;99568.42;;;26.43;36.35
60646;BME280;46462;32.608;-117.032;2023-04-10T01:38:32;99568.70;;;26.46;36.22
60646;BME280;46462;32.608;-117.032;2023-04-10T01:41:03;99581.06;;;26.47;36.27
60646;BME280;46462;32.608;-117.032;2023-04-10T01:43:34;99574.11;;;26.50;36.17
60646;BME280;46462;32.608;-117.032;2023-04-10T01:46:04;99574.16;;;26.47;36.25
60646;BME280;46462;32.608;-117.032;2023-04-10T01:48:35;99572.22;;;26.47;36.29
60646;BME280;46462;32.608;-117.032;2023-04-10T01:51:07;99571.64;;;26.43;36.46
60646;BME280;46462;32.608;-117.032;2023-04-10T01:53:37;99573.55;;;26.45;36.37
60646;BME280;46462;32.608;-117.032;2023-04-10T01:56:08;99573.45;;;26.44;36.52
60646;BME280;46462;32.608;-117.032;2023-04-10T01:58:38;99572.88;;;26.41;36.58
60646;BME280;46462;32.608;-117.032;2023-04-10T02:01:08;99572.26;;;26.38;36.67
60646;BME280;46462;32.608;-117.032;2023-04-10T02:03:39;99573.09;;;26.37;36.64
60646;BME280;46462;32.608;-117.032;2023-04-10T02:06:16;99571.96;;;26.39;36.59
60646;BME280;46462;32.608;-117.032;2023-04-10T02:08:46;99574.77;;;26.34;36.70
60646;BME280;46462;32.608;-117.032;2023-04-10T02:11:14;99571.40;;;26.49;36.33
60646;BME280;46462;32.608;-117.032;2023-04-10T02:13:42;99577.13;;;26.56;36.24
60646;BME280;46462;32.608;-117.032;2023-04-10T02:16:13;99574.63;;;26.55;36.26
60646;BME280;46462;32.608;-117.032;2023-04-10T02:18:45;99578.35;;;26.48;36.47
60646;BME280;46462;32.608;-117.032;2023-04-10T02:21:14;99577.98;;;26.43;36.58
60646;BME280;46462;32.608;-117.032;2023-04-10T02:23:45;99579.58;;;26.40;36.72
60646;BME280;46462;32.608;-117.032;2023-04-10T02:26:16;99578.65;;;26.47;36.42
60646;BME280;46462;32.608;-117.032;2023-04-10T02:28:46;99585.30;;;26.48;36.43
60646;BME280;46462;32.608;-117.032;2023-04-10T02:31:17;99583.18;;;26.47;36.43
60646;BME280;46462;32.608;-117.032;2023-04-10T02:33:48;99583.49;;;26.43;36.55
60646;BME280;46462;32.608;-117.032;2023-04-10T02:36:18;99579.88;;;26.50;36.35
60646;BME280;46462;32.608;-117.032;2023-04-10T02:38:49;99578.48;;;26.53;36.36
60646;BME280;46462;32.608;-117.032;2023-04-10T02:41:20;99584.99;;;26.57;36.30
60646;BME280;46462;32.608;-117.032;2023-04-10T02:43:51;99587.08;;;26.58;36.23
60646;BME280;46462;32.608;-117.032;2023-04-10T02:46:21;99589.46;;;26.54;36.43
60646;BME280;46462;32.608;-117.032;2023-04-10T02:48:52;99591.81;;;26.52;36.45
60646;BME280;46462;32.608;-117.032;2023-04-10T02:51:23;99593.38;;;26.47;36.69
60646;BME280;46462;32.608;-117.032;2023-04-10T02:53:53;99597.28;;;26.44;36.61
60646;BME280;46462;32.608;-117.032;2023-04-10T02:56:24;99596.70;;;26.48;36.54
60646;BME280;46462;32.608;-117.032;2023-04-10T02:58:55;99599.20;;;26.50;36.59
60646;BME280;46462;32.608;-117.032;2023-04-10T03:01:26;99602.34;;;26.49;36.55
60646;BME280;46462;32.608;-117.032;2023-04-10T03:03:56;99600.93;;;26.46;36.50
60646;BME280;46462;32.608;-117.032;2023-04-10T03:06:27;99606.01;;;26.42;36.62
60646;BME280;46462;32.608;-117.032;2023-04-10T03:08:58;99605.22;;;26.41;36.61
60646;BME280;46462;32.608;-117.032;2023-04-10T03:11:28;99609.51;;;26.44;36.52
60646;BME280;46462;32.608;-117.032;2023-04-10T03:13:59;99614.65;;;26.44;36.54
60646;BME280;46462;32.608;-117.032;2023-04-10T03:16:30;99607.92;;;26.47;36.46
60646;BME280;46462;32.608;-117.032;2023-04-10T03:19:01;99612.89;;;26.46;36.42
60646;BME280;46462;32.608;-117.032;2023-04-10T03:21:31;99618.15;;;26.43;36.56
60646;BME280;46462;32.608;-117.032;2023-04-10T03:24:02;99620.59;;;26.36;36.65
60646;BME280;46462;32.608;-117.032;2023-04-10T03:26:33;99624.40;;;26.29;36.89
60646;BME280;46462;32.608;-117.032;2023-04-10T03:29:04;99621.18;;;26.25;37.05
60646;BME280;46462;32.608;-117.032;2023-04-10T03:31:34;99622.25;;;26.23;37.08
60646;BME280;46462;32.608;-117.032;2023-04-10T03:34:05;99626.91;;;26.19;37.22
60646;BME280;46462;32.608;-117.032;2023-04-10T03:36:36;99626.04;;;26.18;37.15
60646;BME280;46462;32.608;-117.032;2023-04-10T03:39:06;99625.65;;;26.18;37.17
60646;BME280;46462;32.608;-117.032;2023-04-10T03:41:37;99631.33;;;26.17;37.15
60646;BME280;46462;32.608;-117.032;2023-04-10T03:44:08;99627.05;;;26.15;37.27
60646;BME280;46462;32.608;-117.032;2023-04-10T03:46:38;99628.56;;;26.12;37.31
60646;BME280;46462;32.608;-117.032;2023-04-10T03:49:09;99634.20;;;26.10;37.34
60646;BME280;46462;32.608;-117.032;2023-04-10T03:51:40;99631.07;;;26.12;37.25
60646;BME280;46462;32.608;-117.032;2023-04-10T03:54:11;99629.10;;;26.11;37.23
60646;BME280;46462;32.608;-117.032;2023-04-10T03:56:41;99635.52;;;26.10;37.23
60646;BME280;46462;32.608;-117.032;2023-04-10T03:59:12;99639.25;;;26.08;37.34
60646;BME280;46462;32.608;-117.032;2023-04-10T04:01:43;99638.15;;;26.02;37.51
60646;BME280;46462;32.608;-117.032;2023-04-10T04:04:13;99643.90;;;26.03;37.48
60646;BME280;46462;32.608;-117.032;2023-04-10T04:06:44;99649.69;;;26.08;37.32
60646;BME280;46462;32.608;-117.032;2023-04-10T04:09:15;99645.91;;;26.05;37.40
60646;BME280;46462;32.608;-117.032;2023-04-10T04:11:46;99649.36;;;26.06;37.36
60646;BME280;46462;32.608;-117.032;2023-04-10T04:14:16;99650.53;;;26.04;37.39
60646;BME280;46462;32.608;-117.032;2023-04-10T04:16:47;99653.30;;;26.05;37.35
60646;BME280;46462;32.608;-117.032;2023-04-10T04:19:18;99656.27;;;26.04;37.32
60646;BME280;46462;32.608;-117.032;2023-04-10T04:21:48;99659.67;;;26.06;37.29
60646;BME280;46462;32.608;-117.032;2023-04-10T04:24:19;99661.11;;;26.00;37.49
60646;BME280;46462;32.608;-117.032;2023-04-10T04:26:50;99658.28;;;26.05;37.24
60646;BME280;46462;32.608;-117.032;2023-04-10T04:29:21;99662.16;;;26.05;37.31
60646;BME280;46462;32.608;-117.032;2023-04-10T04:31:52;99660.30;;;26.04;37.29
60646;BME280;46462;32.608;-117.032;2023-04-10T04:34:22;99664.19;;;26.05;37.28
60646;BME280;46462;32.608;-117.032;2023-04-10T04:36:53;99667.90;;;26.05;37.28
60646;BME280;46462;32.608;-117.032;2023-04-10T04:39:24;99670.27;;;26.11;37.12
60646;BME280;46462;32.608;-117.032;2023-04-10T04:41:54;99669.75;;;26.11;37.08
60646;BME280;46462;32.608;-117.032;2023-04-10T04:44:25;99667.02;;;26.05;37.19
60646;BME280;46462;32.608;-117.032;2023-04-10T04:46:56;99669.26;;;26.03;37.23
60646;BME280;46462;32.608;-117.032;2023-04-10T04:49:27;99670.39;;;26.02;37.23
60646;BME280;46462;32.608;-117.032;2023-04-10T04:51:57;99670.43;;;26.02;37.21
60646;BME280;46462;32.608;-117.032;2023-04-10T04:54:28;99668.78;;;25.99;37.25
60646;BME280;46462;32.608;-117.032;2023-04-10T04:56:59;99666.49;;;25.99;37.27
60646;BME280;46462;32.608;-117.032;2023-04-10T04:59:29;99669.36;;;26.00;37.20
60646;BME280;46462;32.608;-117.032;2023-04-10T05:02:00;99667.61;;;25.97;37.26
60646;BME280;46462;32.608;-117.032;2023-04-10T05:04:31;99666.71;;;25.94;37.32
60646;BME280;46462;32.608;-117.032;2023-04-10T05:07:02;99668.14;;;25.96;37.30
60646;BME280;46462;32.608;-117.032;2023-04-10T05:09:33;99665.36;;;25.93;37.32
60646;BME280;46462;32.608;-117.032;2023-04-10T05:12:04;99669.22;;;25.95;37.24
60646;BME280;46462;32.608;-117.032;2023-04-10T05:14:34;99669.38;;;25.93;37.25
60646;BME280;46462;32.608;-117.032;2023-04-10T05:17:05;99669.14;;;25.90;37.33
60646;BME280;46462;32.608;-117.032;2023-04-10T05:19:35;99668.16;;;25.90;37.28
60646;BME280;46462;32.608;-117.032;2023-04-10T05:22:06;99670.09;;;25.89;37.28
60646;BME280;46462;32.608;-117.032;2023-04-10T05:24:37;99669.36;;;25.85;37.29
60646;BME280;46462;32.608;-117.032;2023-04-10T05:27:07;99667.97;;;25.88;37.27
60646;BME280;46462;32.608;-117.032;2023-04-10T05:29:38;99669.42;;;25.84;37.27
60646;BME280;46462;32.608;-117.032;2023-04-10T05:32:09;99666.92;;;25.80;37.36
60646;BME280;46462;32.608;-117.032;2023-04-10T05:34:40;99666.89;;;25.81;37.34
60646;BME280;46462;32.608;-117.032;2023-04-10T05:37:10;99664.29;;;25.81;37.32
60646;BME280;46462;32.608;-117.032;2023-04-10T05:39:41;99665.94;;;25.80;37.29
60646;BME280;46462;32.608;-117.032;2023-04-10T05:42:12;99669.12;;;25.78;37.31
60646;BME280;46462;32.608;-117.032;2023-04-10T05:44:43;99662.53;;;25.73;37.40
60646;BME280;46462;32.608;-117.032;2023-04-10T05:47:13;99664.16;;;25.77;37.29
60646;BME280;46462;32.608;-117.032;2023-04-10T05:49:44;99664.96;;;25.77;37.26
60646;BME280;46462;32.608;-117.032;2023-04-10T05:52:15;99663.82;;;25.74;37.28
60646;BME280;46462;32.608;-117.032;2023-04-10T05:54:46;99666.62;;;25.70;37.34
60646;BME280;46462;32.608;-117.032;2023-04-10T05:57:16;99666.26;;;25.70;37.29
60646;BME280;46462;32.608;-117.032;2023-04-10T05:59:47;99665.15;;;25.69;37.28
60646;BME280;46462;32.608;-117.032;2023-04-10T06:02:18;99667.16;;;25.63;37.41
60646;BME280;46462;32.608;-117.032;2023-04-10T06:04:48;99665.40;;;25.65;37.32
60646;BME280;46462;32.608;-117.032;2023-04-10T06:07:19;99665.84;;;25.70;37.19
60646;BME280;46462;32.608;-117.032;2023-04-10T06:09:50;99666.10;;;25.70;37.15
60646;BME280;46462;32.608;-117.032;2023-04-10T06:12:21;99667.17;;;25.72;37.10
60646;BME280;46462;32.608;-117.032;2023-04-10T06:14:51;99668.05;;;25.72;37.05
60646;BME280;46462;32.608;-117.032;2023-04-10T06:17:22;99665.65;;;25.74;36.99
60646;BME280;46462;32.608;-117.032;2023-04-10T06:19:53;99664.09;;;25.73;36.96
60646;BME280;46462;32.608;-117.032;2023-04-10T06:22:24;99666.99;;;25.74;36.90
60646;BME280;46462;32.608;-117.032;2023-04-10T06:24:54;99661.55;;;25.71;36.95
60646;BME280;46462;32.608;-117.032;2023-04-10T06:27:25;99661.87;;;25.72;36.86
60646;BME280;46462;32.608;-117.032;2023-04-10T06:29:56;99665.22;;;25.69;36.92
60646;BME280;46462;32.608;-117.032;2023-04-10T06:32:27;99664.38;;;25.66;36.97
60646;BME280;46462;32.608;-117.032;2023-04-10T06:34:57;99661.20;;;25.65;36.97
60646;BME280;46462;32.608;-117.032;2023-04-10T06:37:28;99660.81;;;25.65;36.92
60646;BME280;46462;32.608;-117.032;2023-04-10T06:40:04;99658.67;;;25.65;36.91
60646;BME280;46462;32.608;-117.032;2023-04-10T06:42:30;99655.33;;;25.63;36.90
60646;BME280;46462;32.608;-117.032;2023-04-10T06:45:00;99652.62;;;25.64;36.87
60646;BME280;46462;32.608;-117.032;2023-04-10T06:47:31;99652.58;;;25.64;36.80
60646;BME280;46462;32.608;-117.032;2023-04-10T06:50:02;99652.25;;;25.58;36.86
60646;BME280;46462;32.608;-117.032;2023-04-10T06:52:33;99653.00;;;25.60;36.83
60646;BME280;46462;32.608;-117.032;2023-04-10T06:55:07;99655.68;;;25.58;36.86
60646;BME280;46462;32.608;-117.032;2023-04-10T06:57:37;99657.65;;;25.57;36.82
60646;BME280;46462;32.608;-117.032;2023-04-10T07:00:08;99659.85;;;25.53;36.87
60646;BME280;46462;32.608;-117.032;2023-04-10T07:02:38;99658.72;;;25.52;36.86
60646;BME280;46462;32.608;-117.032;2023-04-10T07:05:09;99658.40;;;25.50;36.87
60646;BME280;46462;32.608;-117.032;2023-04-10T07:07:40;99657.44;;;25.49;36.82
60646;BME280;46462;32.608;-117.032;2023-04-10T07:10:11;99653.97;;;25.45;36.89
60646;BME280;46462;32.608;-117.032;2023-04-10T07:12:41;99649.55;;;25.44;36.85
60646;BME280;46462;32.608;-117.032;2023-04-10T07:15:12;99649.33;;;25.42;36.89
60646;BME280;46462;32.608;-117.032;2023-04-10T07:17:43;99654.50;;;25.45;36.80
60646;BME280;46462;32.608;-117.032;2023-04-10T07:20:13;99651.90;;;25.41;36.83
60646;BME280;46462;32.608;-117.032;2023-04-10T07:22:44;99651.44;;;25.42;36.75
60646;BME280;46462;32.608;-117.032;2023-04-10T07:25:15;99654.65;;;25.40;36.76
60646;BME280;46462;32.608;-117.032;2023-04-10T07:27:46;99654.95;;;25.38;36.77
60646;BME280;46462;32.608;-117.032;2023-04-10T07:30:17;99650.32;;;25.33;36.82
60646;BME280;46462;32.608;-117.032;2023-04-10T07:32:47;99651.16;;;25.29;36.85
60646;BME280;46462;32.608;-117.032;2023-04-10T07:35:18;99652.72;;;25.28;36.85
60646;BME280;46462;32.608;-117.032;2023-04-10T07:37:49;99648.07;;;25.28;36.79
60646;BME280;46462;32.608;-117.032;2023-04-10T07:40:19;99644.41;;;25.29;36.73
60646;BME280;46462;32.608;-117.032;2023-04-10T07:42:50;99641.48;;;25.26;36.76
60646;BME280;46462;32.608;-117.032;2023-04-10T07:45:21;99640.80;;;25.21;36.84
60646;BME280;46462;32.608;-117.032;2023-04-10T07:47:52;99642.10;;;25.24;36.70
60646;BME280;46462;32.608;-117.032;2023-04-10T07:50:22;99640.10;;;25.23;36.70
60646;BME280;46462;32.608;-117.032;2023-04-10T07:52:53;99636.86;;;25.20;36.70
60646;BME280;46462;32.608;-117.032;2023-04-10T07:55:24;99636.41;;;25.20;36.68
60646;BME280;46462;32.608;-117.032;2023-04-10T07:57:55;99634.86;;;25.22;36.57
60646;BME280;46462;32.608;-117.032;2023-04-10T08:00:25;99634.81;;;25.21;36.56
60646;BME280;46462;32.608;-117.032;2023-04-10T08:02:56;99639.21;;;25.20;36.55
60646;BME280;46462;32.608;-117.032;2023-04-10T08:05:27;99638.87;;;25.19;36.51
60646;BME280;46462;32.608;-117.032;2023-04-10T08:07:58;99638.03;;;25.16;36.58
60646;BME280;46462;32.608;-117.032;2023-04-10T08:10:29;99634.91;;;25.15;36.55
60646;BME280;46462;32.608;-117.032;2023-04-10T08:12:59;99636.50;;;25.16;36.48
60646;BME280;46462;32.608;-117.032;2023-04-10T08:15:30;99637.49;;;25.15;36.48
60646;BME280;46462;32.608;-117.032;2023-04-10T08:18:01;99637.84;;;25.16;36.44
60646;BME280;46462;32.608;-117.032;2023-04-10T08:20:32;99638.11;;;25.15;36.41
60646;BME280;46462;32.608;-117.032;2023-04-10T08:23:02;99635.51;;;25.16;36.40
60646;BME280;46462;32.608;-117.032;2023-04-10T08:25:33;99634.77;;;25.18;36.31
60646;BME280;46462;32.608;-117.032;2023-04-10T08:28:04;99634.10;;;25.19;36.23
60646;BME280;46462;32.608;-117.032;2023-04-10T08:30:34;99633.53;;;25.20;36.19
60646;BME280;46462;32.608;-117.032;2023-04-10T08:33:05;99632.30;;;25.20;36.15
60646;BME280;46462;32.608;-117.032;2023-04-10T08:35:36;99631.86;;;25.15;36.19
60646;BME280;46462;32.608;-117.032;2023-04-10T08:38:07;99630.08;;;25.17;36.09
60646;BME280;46462;32.608;-117.032;2023-04-10T08:40:37;99632.55;;;25.09;36.22
60646;BME280;46462;32.608;-117.032;2023-04-10T08:43:08;99634.23;;;25.13;36.14
60646;BME280;46462;32.608;-117.032;2023-04-10T08:45:40;99634.40;;;25.12;36.09
60646;BME280;46462;32.608;-117.032;2023-04-10T08:48:10;99633.61;;;25.13;36.04
60646;BME280;46462;32.608;-117.032;2023-04-10T08:50:42;99635.17;;;25.11;36.03
60646;BME280;46462;32.608;-117.032;2023-04-10T08:53:13;99634.61;;;25.09;36.02
60646;BME280;46462;32.608;-117.032;2023-04-10T08:55:43;99632.56;;;25.07;36.02
60646;BME280;46462;32.608;-117.032;2023-04-10T08:58:13;99630.28;;;25.06;36.03
60646;BME280;46462;32.608;-117.032;2023-04-10T09:00:44;99629.98;;;25.07;35.97
60646;BME280;46462;32.608;-117.032;2023-04-10T09:03:15;99625.12;;;25.04;35.98
60646;BME280;46462;32.608;-117.032;2023-04-10T09:05:45;99627.09;;;25.02;36.01
60646;BME280;46462;32.608;-117.032;2023-04-10T09:08:16;99627.51;;;25.02;36.01
60646;BME280;46462;32.608;-117.032;2023-04-10T09:10:47;99624.13;;;25.03;35.92
60646;BME280;46462;32.608;-117.032;2023-04-10T09:15:56;99619.40;;;24.97;36.01
60646;BME280;46462;32.608;-117.032;2023-04-10T09:18:19;99615.99;;;24.97;35.96
60646;BME280;46462;32.608;-117.032;2023-04-10T09:20:50;99608.66;;;24.96;35.97
60646;BME280;46462;32.608;-117.032;2023-04-10T09:23:21;99608.15;;;24.97;35.89
60646;BME280;46462;32.608;-117.032;2023-04-10T09:25:51;99606.37;;;24.95;35.93
60646;BME280;46462;32.608;-117.032;2023-04-10T09:28:22;99604.58;;;24.95;35.89
60646;BME280;46462;32.608;-117.032;2023-04-10T09:30:53;99598.55;;;24.94;35.88
60646;BME280;46462;32.608;-117.032;2023-04-10T09:33:25;99593.79;;;24.93;35.87
60646;BME280;46462;32.608;-117.032;2023-04-10T09:35:57;99595.69;;;24.87;35.98
60646;BME280;46462;32.608;-117.032;2023-04-10T09:38:25;99594.73;;;24.85;36.01
60646;BME280;46462;32.608;-117.032;2023-04-10T09:41:05;99593.11;;;24.88;35.97
60646;BME280;46462;32.608;-117.032;2023-04-10T09:43:27;99590.34;;;24.85;35.97
60646;BME280;46462;32.608;-117.032;2023-04-10T09:45:57;99588.08;;;24.82;36.00
60646;BME280;46462;32.608;-117.032;2023-04-10T09:48:28;99587.82;;;24.82;36.00
60646;BME280;46462;32.608;-117.032;2023-04-10T09:50:59;99586.45;;;24.79;36.03
60646;BME280;46462;32.608;-117.032;2023-04-10T09:53:30;99585.82;;;24.75;36.05
60646;BME280;46462;32.608;-117.032;2023-04-10T09:56:01;99585.71;;;24.76;36.07
60646;BME280;46462;32.608;-117.032;2023-04-10T09:58:31;99582.90;;;24.75;36.04
60646;BME280;46462;32.608;-117.032;2023-04-10T10:01:02;99579.18;;;24.75;36.03
60646;BME280;46462;32.608;-117.032;2023-04-10T10:03:33;99578.44;;;24.75;36.03
60646;BME280;46462;32.608;-117.032;2023-04-10T10:06:04;99578.10;;;24.76;36.00
60646;BME280;46462;32.608;-117.032;2023-04-10T10:08:35;99576.23;;;24.73;36.08
60646;BME280;46462;32.608;-117.032;2023-04-10T10:11:07;99576.70;;;24.74;36.02
60646;BME280;46462;32.608;-117.032;2023-04-10T10:13:43;99577.57;;;24.75;35.98
60646;BME280;46462;32.608;-117.032;2023-04-10T10:16:12;99575.76;;;24.77;35.86
60646;BME280;46462;32.608;-117.032;2023-04-10T10:18:43;99577.29;;;24.79;35.79
60646;BME280;46462;32.608;-117.032;2023-04-10T10:21:09;99572.28;;;24.83;35.69
60646;BME280;46462;32.608;-117.032;2023-04-10T10:23:40;99570.35;;;24.75;35.84
60646;BME280;46462;32.608;-117.032;2023-04-10T10:26:10;99568.38;;;24.78;35.76
60646;BME280;46462;32.608;-117.032;2023-04-10T10:28:40;99569.25;;;24.78;35.69
60646;BME280;46462;32.608;-117.032;2023-04-10T10:31:12;99571.17;;;24.75;35.73
60646;BME280;46462;32.608;-117.032;2023-04-10T10:33:43;99570.47;;;24.74;35.75
60646;BME280;46462;32.608;-117.032;2023-04-10T10:36:14;99567.08;;;24.73;35.74
60646;BME280;46462;32.608;-117.032;2023-04-10T10:39:00;99566.28;;;24.73;35.72
60646;BME280;46462;32.608;-117.032;2023-04-10T10:41:20;99565.13;;;24.74;35.68
60646;BME280;46462;32.608;-117.032;2023-04-10T10:43:52;99562.09;;;24.67;35.79
60646;BME280;46462;32.608;-117.032;2023-04-10T10:46:23;99563.56;;;24.69;35.73
60646;BME280;46462;32.608;-117.032;2023-04-10T10:48:56;99562.46;;;24.71;35.66
60646;BME280;46462;32.608;-117.032;2023-04-10T10:51:17;99563.04;;;24.71;35.64
60646;BME280;46462;32.608;-117.032;2023-04-10T10:53:48;99559.65;;;24.73;35.60
60646;BME280;46462;32.608;-117.032;2023-04-10T10:58:51;99561.75;;;24.65;35.70
60646;BME280;46462;32.608;-117.032;2023-04-10T11:01:21;99556.14;;;24.65;35.70
60646;BME280;46462;32.608;-117.032;2023-04-10T11:03:51;99556.66;;;24.66;35.68
60646;BME280;46462;32.608;-117.032;2023-04-10T11:08:53;99553.54;;;24.61;35.73
60646;BME280;46462;32.608;-117.032;2023-04-10T11:11:24;99549.27;;;24.63;35.68
60646;BME280;46462;32.608;-117.032;2023-04-10T11:19:01;99551.69;;;24.63;35.62
60646;BME280;46462;32.608;-117.032;2023-04-10T11:21:28;99549.63;;;24.63;35.62
60646;BME280;46462;32.608;-117.032;2023-04-10T11:24:02;99550.99;;;24.64;35.58
60646;BME280;46462;32.608;-117.032;2023-04-10T11:26:36;99548.48;;;24.58;35.70
60646;BME280;46462;32.608;-117.032;2023-04-10T11:28:59;99547.16;;;24.54;35.80
60646;BME280;46462;32.608;-117.032;2023-04-10T11:31:31;99551.34;;;24.54;35.81
60646;BME280;46462;32.608;-117.032;2023-04-10T11:34:02;99551.89;;;24.49;35.86
60646;BME280;46462;32.608;-117.032;2023-04-10T11:36:32;99552.45;;;24.49;35.87
60646;BME280;46462;32.608;-117.032;2023-04-10T11:39:04;99555.79;;;24.43;35.94
60646;BME280;46462;32.608;-117.032;2023-04-10T11:41:34;99557.56;;;24.48;35.85
60646;BME280;46462;32.608;-117.032;2023-04-10T11:44:05;99560.08;;;24.44;35.90
60646;BME280;46462;32.608;-117.032;2023-04-10T11:46:37;99560.74;;;24.47;35.86
60646;BME280;46462;32.608;-117.032;2023-04-10T11:49:07;99560.39;;;24.45;35.86
60646;BME280;46462;32.608;-117.032;2023-04-10T11:51:36;99563.55;;;24.48;35.79
60646;BME280;46462;32.608;-117.032;2023-04-10T11:54:08;99564.13;;;24.44;35.79
60646;BME280;46462;32.608;-117.032;2023-04-10T11:56:39;99561.54;;;24.42;35.84
60646;BME280;46462;32.608;-117.032;2023-04-10T11:59:08;99564.05;;;24.38;35.88
60646;BME280;46462;32.608;-117.032;2023-04-10T12:01:39;99563.53;;;24.37;35.90
60646;BME280;46462;32.608;-117.032;2023-04-10T12:04:14;99560.98;;;24.35;35.93
60646;BME280;46462;32.608;-117.032;2023-04-10T12:06:44;99567.55;;;24.39;35.85
60646;BME280;46462;32.608;-117.032;2023-04-10T12:09:13;99567.30;;;24.36;35.88
60646;BME280;46462;32.608;-117.032;2023-04-10T12:11:48;99563.97;;;24.37;35.82
60646;BME280;46462;32.608;-117.032;2023-04-10T12:14:13;99564.87;;;24.36;35.84
60646;BME280;46462;32.608;-117.032;2023-04-10T12:16:44;99562.05;;;24.38;35.81
60646;BME280;46462;32.608;-117.032;2023-04-10T12:19:15;99562.29;;;24.36;35.85
60646;BME280;46462;32.608;-117.032;2023-04-10T12:21:45;99564.86;;;24.39;35.80
60646;BME280;46462;32.608;-117.032;2023-04-10T12:26:47;99565.79;;;24.42;35.69
60646;BME280;46462;32.608;-117.032;2023-04-10T12:29:17;99566.86;;;24.40;35.76
60646;BME280;46462;32.608;-117.032;2023-04-10T12:31:48;99566.64;;;24.41;35.68
60646;BME280;46462;32.608;-117.032;2023-04-10T12:34:19;99568.28;;;24.33;35.79
60646;BME280;46462;32.608;-117.032;2023-04-10T12:36:52;99570.89;;;24.36;35.75
60646;BME280;46462;32.608;-117.032;2023-04-10T12:39:23;99574.79;;;24.33;35.80
60646;BME280;46462;32.608;-117.032;2023-04-10T12:41:52;99569.84;;;24.31;35.83
60646;BME280;46462;32.608;-117.032;2023-04-10T12:44:22;99567.93;;;24.31;35.81
60646;BME280;46462;32.608;-117.032;2023-04-10T12:46:58;99570.74;;;24.33;35.77
60646;BME280;46462;32.608;-117.032;2023-04-10T12:49:24;99570.75;;;24.25;35.91
60646;BME280;46462;32.608;-117.032;2023-04-10T12:51:55;99571.39;;;24.29;35.83
60646;BME280;46462;32.608;-117.032;2023-04-10T12:54:28;99573.64;;;24.30;35.78
60646;BME280;46462;32.608;-117.032;2023-04-10T12:56:56;99574.16;;;24.27;35.85
60646;BME280;46462;32.608;-117.032;2023-04-10T12:59:28;99577.00;;;24.30;35.75
60646;BME280;46462;32.608;-117.032;2023-04-10T13:01:58;99581.09;;;24.27;35.78
60646;BME280;46462;32.608;-117.032;2023-04-10T13:04:29;99578.65;;;24.25;35.84
60646;BME280;46462;32.608;-117.032;2023-04-10T13:06:59;99582.43;;;24.24;35.86